createdAt,value
2016-12-18T00:00:14.875Z,0.5
2016-12-18T00:00:33.499Z,0.6
2016-12-18T00:00:52.131Z,0.6
2016-12-18T00:01:10.780Z,0.6
2016-12-18T00:01:29.416Z,0.6
2016-12-18T00:01:48.075Z,0.7
2016-12-18T00:02:06.693Z,0.7
2016-12-18T00:02:25.314Z,0.7
2016-12-18T00:02:43.940Z,0.7
2016-12-18T00:03:02.560Z,0.7
2016-12-18T00:03:21.204Z,0.7
2016-12-18T00:03:39.830Z,0.8
2016-12-18T00:03:58.450Z,0.8
2016-12-18T00:04:17.084Z,0.8
2016-12-18T00:04:35.714Z,0.8
2016-12-18T00:04:54.340Z,0.8
2016-12-18T00:05:12.992Z,0.8
2016-12-18T00:05:31.612Z,0.9
2016-12-18T00:05:50.244Z,0.9
2016-12-18T00:06:08.870Z,0.9
2016-12-18T00:06:27.520Z,0.9
2016-12-18T00:06:46.143Z,0.9
2016-12-18T00:07:04.776Z,0.8
2016-12-18T00:07:23.416Z,0.8
2016-12-18T00:07:42.046Z,0.8
2016-12-18T00:08:00.668Z,0.7
2016-12-18T00:08:19.288Z,0.7
2016-12-18T00:08:37.918Z,0.7
2016-12-18T00:08:56.542Z,0.7
2016-12-18T00:09:15.170Z,0.6
2016-12-18T00:09:33.814Z,0.6
2016-12-18T00:09:52.439Z,0.6
2016-12-18T00:10:11.063Z,0.5
2016-12-18T00:10:29.709Z,0.5
2016-12-18T00:10:48.338Z,0.5
2016-12-18T00:11:06.962Z,0.4
2016-12-18T00:11:25.585Z,0.4
2016-12-18T00:11:44.252Z,0.4
2016-12-18T00:12:02.877Z,0.3
2016-12-18T00:12:21.492Z,0.3
2016-12-18T00:12:40.121Z,0.3
2016-12-18T00:12:58.754Z,0.3
2016-12-18T00:13:17.388Z,0.2
2016-12-18T00:13:36.017Z,0.2
2016-12-18T00:13:54.669Z,0.2
2016-12-18T00:14:13.290Z,0.2
2016-12-18T00:14:31.924Z,0.2
2016-12-18T00:14:50.553Z,0.2
2016-12-18T00:15:09.191Z,0.1
2016-12-18T00:15:27.820Z,0.1
2016-12-18T00:15:46.436Z,0.1
2016-12-18T00:16:05.055Z,0.1
2016-12-18T00:16:23.690Z,0.1
2016-12-18T00:16:42.316Z,0
2016-12-18T00:17:00.966Z,0
2016-12-18T00:17:19.634Z,0
2016-12-18T00:17:38.268Z,0
2016-12-18T00:17:56.908Z,-0.1
2016-12-18T00:18:15.545Z,-0.1
2016-12-18T00:18:34.190Z,-0.1
2016-12-18T00:18:52.831Z,-0.1
2016-12-18T00:19:11.475Z,-0.1
2016-12-18T00:19:30.124Z,-0.1
2016-12-18T00:19:48.767Z,-0.1
2016-12-18T00:20:07.408Z,-0.1
2016-12-18T00:20:26.048Z,-0.1
2016-12-18T00:20:44.709Z,-0.1
2016-12-18T00:21:03.348Z,-0.1
2016-12-18T00:21:21.991Z,-0.1
2016-12-18T00:21:40.637Z,-0.2
2016-12-18T00:21:59.282Z,-0.2
2016-12-18T00:22:17.968Z,-0.3
2016-12-18T00:22:36.610Z,-0.3
2016-12-18T00:22:55.249Z,-0.3
2016-12-18T00:23:13.895Z,-0.3
2016-12-18T00:23:32.531Z,-0.4
2016-12-18T00:23:51.174Z,-0.4
2016-12-18T00:24:09.824Z,-0.4
2016-12-18T00:24:28.466Z,-0.4
2016-12-18T00:24:47.119Z,-0.4
2016-12-18T00:25:05.767Z,-0.4
2016-12-18T00:25:24.467Z,-0.4
2016-12-18T00:25:43.108Z,-0.4
2016-12-18T00:26:01.754Z,-0.4
2016-12-18T00:26:20.389Z,-0.4
2016-12-18T00:26:39.032Z,-0.4
2016-12-18T00:26:57.680Z,-0.5
2016-12-18T00:27:16.332Z,-0.5
2016-12-18T00:27:35.001Z,-0.5
2016-12-18T00:27:53.649Z,-0.5
2016-12-18T00:28:12.295Z,-0.5
2016-12-18T00:28:30.934Z,-0.5
2016-12-18T00:28:49.607Z,-0.5
2016-12-18T00:29:08.248Z,-0.5
2016-12-18T00:29:26.884Z,-0.6
2016-12-18T00:29:45.522Z,-0.6
2016-12-18T00:30:04.164Z,-0.6
2016-12-18T00:30:22.806Z,-0.6
2016-12-18T00:30:41.452Z,-0.5
2016-12-18T00:31:00.089Z,-0.5
2016-12-18T00:31:18.728Z,-0.5
2016-12-18T00:31:37.378Z,-0.6
2016-12-18T00:31:56.018Z,-0.6
2016-12-18T00:32:14.679Z,-0.6
2016-12-18T00:32:33.322Z,-0.6
2016-12-18T00:32:51.978Z,-0.6
2016-12-18T00:33:10.617Z,-0.6
2016-12-18T00:33:29.261Z,-0.7
2016-12-18T00:33:47.931Z,-0.7
2016-12-18T00:34:06.574Z,-0.7
2016-12-18T00:34:25.215Z,-0.7
2016-12-18T00:34:43.854Z,-0.7
2016-12-18T00:35:02.493Z,-0.7
2016-12-18T00:35:21.146Z,-0.7
2016-12-18T00:35:39.786Z,-0.7
2016-12-18T00:35:58.461Z,-0.7
2016-12-18T00:36:17.108Z,-0.7
2016-12-18T00:36:35.748Z,-0.7
2016-12-18T00:36:54.426Z,-0.7
2016-12-18T00:37:13.068Z,-0.7
2016-12-18T00:37:31.710Z,-0.7
2016-12-18T00:37:50.348Z,-0.7
2016-12-18T00:38:08.991Z,-0.8
2016-12-18T00:38:27.634Z,-0.8
2016-12-18T00:38:46.279Z,-0.8
2016-12-18T00:39:04.922Z,-0.8
2016-12-18T00:39:23.558Z,-0.8
2016-12-18T00:39:42.203Z,-0.8
2016-12-18T00:40:00.863Z,-0.8
2016-12-18T00:40:19.543Z,-0.8
2016-12-18T00:40:38.183Z,-0.8
2016-12-18T00:40:56.824Z,-0.8
2016-12-18T00:41:15.467Z,-0.8
2016-12-18T00:41:34.110Z,-0.8
2016-12-18T00:41:52.749Z,-0.8
2016-12-18T00:42:11.387Z,-0.8
2016-12-18T00:42:30.026Z,-0.8
2016-12-18T00:42:48.666Z,-0.8
2016-12-18T00:43:07.309Z,-0.8
2016-12-18T00:43:25.968Z,-0.8
2016-12-18T00:43:44.625Z,-0.8
2016-12-18T00:44:03.273Z,-0.8
2016-12-18T00:44:21.918Z,-0.8
2016-12-18T00:44:40.561Z,-0.8
2016-12-18T00:44:59.197Z,-0.9
2016-12-18T00:45:17.871Z,-0.9
2016-12-18T00:45:36.509Z,-0.9
2016-12-18T00:45:55.154Z,-0.9
2016-12-18T00:46:13.793Z,-0.9
2016-12-18T00:46:32.429Z,-0.9
2016-12-18T00:46:51.076Z,-0.9
2016-12-18T00:47:09.720Z,-0.9
2016-12-18T00:47:28.368Z,-0.9
2016-12-18T00:47:47.009Z,-0.9
2016-12-18T00:48:05.644Z,-0.9
2016-12-18T00:48:24.319Z,-0.9
2016-12-18T00:48:42.975Z,-0.9
2016-12-18T00:49:01.617Z,-0.9
2016-12-18T00:49:20.250Z,-0.9
2016-12-18T00:49:38.884Z,-0.9
2016-12-18T00:49:57.525Z,-0.9
2016-12-18T00:50:16.171Z,-0.9
2016-12-18T00:50:34.813Z,-0.9
2016-12-18T00:50:53.454Z,-0.9
2016-12-18T00:51:12.088Z,-0.9
2016-12-18T00:51:30.736Z,-0.9
2016-12-18T00:51:49.410Z,-0.9
2016-12-18T00:52:08.049Z,-0.9
2016-12-18T00:52:26.683Z,-0.9
2016-12-18T00:52:45.317Z,-0.9
2016-12-18T00:53:03.963Z,-0.9
2016-12-18T00:53:22.605Z,-0.9
2016-12-18T00:53:41.247Z,-0.9
2016-12-18T00:53:59.895Z,-0.9
2016-12-18T00:54:18.536Z,-0.9
2016-12-18T00:54:37.179Z,-0.9
2016-12-18T00:54:55.819Z,-0.9
2016-12-18T00:55:14.503Z,-0.9
2016-12-18T00:55:33.137Z,-0.9
2016-12-18T00:55:51.778Z,-0.9
2016-12-18T00:56:10.418Z,-0.9
2016-12-18T00:56:29.059Z,-0.9
2016-12-18T00:56:47.698Z,-0.9
2016-12-18T00:57:06.334Z,-0.9
2016-12-18T00:57:24.985Z,-0.9
2016-12-18T00:57:43.633Z,-0.9
2016-12-18T00:58:02.298Z,-0.9
2016-12-18T00:58:20.938Z,-0.9
2016-12-18T00:58:39.589Z,-0.9
2016-12-18T00:58:58.230Z,-0.9
2016-12-18T00:59:16.900Z,-0.9
2016-12-18T00:59:35.543Z,-0.9
2016-12-18T00:59:54.191Z,-1
2016-12-18T01:00:12.859Z,-1
2016-12-18T01:00:31.502Z,-1
2016-12-18T01:00:50.140Z,-1
2016-12-18T01:01:08.778Z,-1
2016-12-18T01:01:27.416Z,-1
2016-12-18T01:01:46.053Z,-1
2016-12-18T01:02:04.694Z,-1
2016-12-18T01:02:23.334Z,-1
2016-12-18T01:02:41.975Z,-1
2016-12-18T01:03:00.619Z,-1.1
2016-12-18T01:03:19.291Z,-1.1
2016-12-18T01:03:37.941Z,-1.1
2016-12-18T01:03:56.580Z,-1.1
2016-12-18T01:04:15.216Z,-1.1
2016-12-18T01:04:33.873Z,-1.1
2016-12-18T01:04:52.521Z,-1.1
2016-12-18T01:05:11.167Z,-1.1
2016-12-18T01:05:29.807Z,-1.1
2016-12-18T01:05:48.445Z,-1.1
2016-12-18T01:06:07.080Z,-1.2
2016-12-18T01:06:25.723Z,-1.2
2016-12-18T01:06:44.400Z,-1.2
2016-12-18T01:07:03.042Z,-1.2
2016-12-18T01:07:21.681Z,-1.2
2016-12-18T01:07:40.319Z,-1.2
2016-12-18T01:07:58.958Z,-1.2
2016-12-18T01:08:17.606Z,-1.2
2016-12-18T01:08:36.247Z,-1.2
2016-12-18T01:08:54.883Z,-1.2
2016-12-18T01:09:13.525Z,-1.2
2016-12-18T01:09:32.166Z,-1.2
2016-12-18T01:09:50.821Z,-1.2
2016-12-18T01:10:09.495Z,-1.2
2016-12-18T01:10:28.152Z,-1.2
2016-12-18T01:10:46.801Z,-1.2
2016-12-18T01:11:05.440Z,-1.2
2016-12-18T01:11:24.086Z,-1.2
2016-12-18T01:11:42.750Z,-1.2
2016-12-18T01:12:01.394Z,-1.2
2016-12-18T01:12:20.034Z,-1.2
2016-12-18T01:12:38.675Z,-1.2
2016-12-18T01:12:57.321Z,-1.2
2016-12-18T01:13:15.956Z,-1.2
2016-12-18T01:13:34.590Z,-1.2
2016-12-18T01:13:53.235Z,-1.2
2016-12-18T01:14:11.876Z,-1.2
2016-12-18T01:14:30.520Z,-1.2
2016-12-18T01:14:49.177Z,-1.2
2016-12-18T01:15:07.842Z,-1.2
2016-12-18T01:15:26.481Z,-1.2
2016-12-18T01:15:45.125Z,-1.2
2016-12-18T01:16:03.799Z,-1.2
2016-12-18T01:16:22.444Z,-1.2
2016-12-18T01:16:41.084Z,-1.2
2016-12-18T01:16:59.726Z,-1.2
2016-12-18T01:17:18.374Z,-1.2
2016-12-18T01:17:37.018Z,-1.2
2016-12-18T01:17:55.655Z,-1.2
2016-12-18T01:18:14.338Z,-1.2
2016-12-18T01:18:32.983Z,-1.2
2016-12-18T01:18:51.623Z,-1.2
2016-12-18T01:19:10.262Z,-1.2
2016-12-18T01:19:28.905Z,-1.2
2016-12-18T01:19:47.554Z,-1.2
2016-12-18T01:20:06.200Z,-1.2
2016-12-18T01:20:24.855Z,-1.2
2016-12-18T01:20:43.490Z,-1.2
2016-12-18T01:21:02.133Z,-1.2
2016-12-18T01:21:20.770Z,-1.2
2016-12-18T01:21:39.447Z,-1.2
2016-12-18T01:21:58.088Z,-1.2
2016-12-18T01:22:16.735Z,-1.2
2016-12-18T01:22:35.415Z,-1.2
2016-12-18T01:22:54.067Z,-1.3
2016-12-18T01:23:12.743Z,-1.3
2016-12-18T01:23:31.396Z,-1.3
2016-12-18T01:23:50.039Z,-1.3
2016-12-18T01:24:08.680Z,-1.3
2016-12-18T01:24:27.316Z,-1.3
2016-12-18T01:24:45.953Z,-1.3
2016-12-18T01:25:04.599Z,-1.3
2016-12-18T01:25:23.245Z,-1.3
2016-12-18T01:25:41.916Z,-1.3
2016-12-18T01:26:00.558Z,-1.3
2016-12-18T01:26:19.223Z,-1.4
2016-12-18T01:26:37.862Z,-1.4
2016-12-18T01:26:56.508Z,-1.4
2016-12-18T01:27:15.149Z,-1.4
2016-12-18T01:27:33.794Z,-1.4
2016-12-18T01:27:52.440Z,-1.4
2016-12-18T01:28:11.092Z,-1.4
2016-12-18T01:28:29.731Z,-1.4
2016-12-18T01:28:48.372Z,-1.5
2016-12-18T01:29:07.007Z,-1.4
2016-12-18T01:29:25.656Z,-1.5
2016-12-18T01:29:44.333Z,-1.5
2016-12-18T01:30:02.978Z,-1.5
2016-12-18T01:30:21.615Z,-1.5
2016-12-18T01:30:40.256Z,-1.5
2016-12-18T01:30:58.902Z,-1.5
2016-12-18T01:31:17.549Z,-1.5
2016-12-18T01:31:36.189Z,-1.5
2016-12-18T01:31:54.829Z,-1.5
2016-12-18T01:32:13.470Z,-1.5
2016-12-18T01:32:32.121Z,-1.5
2016-12-18T01:32:50.765Z,-1.5
2016-12-18T01:33:09.426Z,-1.5
2016-12-18T01:33:28.070Z,-1.5
2016-12-18T01:33:46.712Z,-1.5
2016-12-18T01:34:05.353Z,-1.4
2016-12-18T01:34:24.006Z,-1.4
2016-12-18T01:34:42.679Z,-1.4
2016-12-18T01:35:01.327Z,-1.4
2016-12-18T01:35:19.971Z,-1.4
2016-12-18T01:35:38.612Z,-1.3
2016-12-18T01:35:57.256Z,-1.3
2016-12-18T01:36:15.905Z,-1.3
2016-12-18T01:36:34.546Z,-1.3
2016-12-18T01:36:53.182Z,-1.3
2016-12-18T01:37:11.821Z,-1.3
2016-12-18T01:37:30.464Z,-1.3
2016-12-18T01:37:49.125Z,-1.3
2016-12-18T01:38:07.762Z,-1.2
2016-12-18T01:38:26.401Z,-1.2
2016-12-18T01:38:45.078Z,-1.2
2016-12-18T01:39:03.712Z,-1.2
2016-12-18T01:39:22.346Z,-1.2
2016-12-18T01:39:40.988Z,-1.2
2016-12-18T01:39:59.627Z,-1.2
2016-12-18T01:40:18.269Z,-1.2
2016-12-18T01:40:36.908Z,-1.2
2016-12-18T01:40:55.567Z,-1.2
2016-12-18T01:41:14.243Z,-1.2
2016-12-18T01:41:32.891Z,-1.2
2016-12-18T01:41:51.530Z,-1.2
2016-12-18T01:42:10.164Z,-1.2
2016-12-18T01:42:28.810Z,-1.2
2016-12-18T01:42:47.461Z,-1.2
2016-12-18T01:43:06.109Z,-1.1
2016-12-18T01:43:24.748Z,-1.1
2016-12-18T01:43:43.390Z,-1.1
2016-12-18T01:44:02.029Z,-1.1
2016-12-18T01:44:20.669Z,-1.1
2016-12-18T01:44:39.352Z,-1.1
2016-12-18T01:44:57.988Z,-1.1
2016-12-18T01:45:16.631Z,-1.1
2016-12-18T01:45:35.271Z,-1.1
2016-12-18T01:45:53.923Z,-1.1
2016-12-18T01:46:12.591Z,-1.1
2016-12-18T01:46:31.237Z,-1.1
2016-12-18T01:46:49.899Z,-1.1
2016-12-18T01:47:08.541Z,-1.1
2016-12-18T01:47:27.186Z,-1.1
2016-12-18T01:47:45.826Z,-1.1
2016-12-18T01:48:04.472Z,-1.1
2016-12-18T01:48:23.115Z,-1.1
2016-12-18T01:48:41.757Z,-1.1
2016-12-18T01:49:00.402Z,-1.1
2016-12-18T01:49:19.059Z,-1.1
2016-12-18T01:49:37.702Z,-1.1
2016-12-18T01:49:56.342Z,-1.1
2016-12-18T01:50:14.984Z,-1.1
2016-12-18T01:50:33.622Z,-1.1
2016-12-18T01:50:52.262Z,-1.1
2016-12-18T01:51:10.903Z,-1.1
2016-12-18T01:51:29.553Z,-1.1
2016-12-18T01:51:48.197Z,-1.1
2016-12-18T01:52:06.855Z,-1.1
2016-12-18T01:52:25.515Z,-1
2016-12-18T01:52:44.199Z,-1
2016-12-18T01:53:02.842Z,-1
2016-12-18T01:53:21.479Z,-1
2016-12-18T01:53:40.129Z,-1.1
2016-12-18T01:53:58.769Z,-1.1
2016-12-18T01:54:17.421Z,-1.1
2016-12-18T01:54:36.057Z,-1.1
2016-12-18T01:54:54.697Z,-1.2
2016-12-18T01:55:13.344Z,-1.2
2016-12-18T01:55:31.987Z,-1.2
2016-12-18T01:55:50.627Z,-1.2
2016-12-18T01:56:09.309Z,-1.2
2016-12-18T01:56:27.948Z,-1.3
2016-12-18T01:56:46.597Z,-1.3
2016-12-18T01:57:05.243Z,-1.3
2016-12-18T01:57:23.905Z,-1.3
2016-12-18T01:57:42.572Z,-1.3
2016-12-18T01:58:01.213Z,-1.3
2016-12-18T01:58:19.854Z,-1.2
2016-12-18T01:58:38.494Z,-1.2
2016-12-18T01:58:57.134Z,-1.2
2016-12-18T01:59:15.770Z,-1.2
2016-12-18T01:59:34.418Z,-1.2
2016-12-18T01:59:53.061Z,-1.2
2016-12-18T02:00:11.704Z,-1.2
2016-12-18T02:00:30.345Z,-1.3
2016-12-18T02:00:48.999Z,-1.3
2016-12-18T02:01:07.645Z,-1.3
2016-12-18T02:01:26.286Z,-1.3
2016-12-18T02:01:44.928Z,-1.3
2016-12-18T02:02:03.567Z,-1.3
2016-12-18T02:02:22.203Z,-1.3
2016-12-18T02:02:40.870Z,-1.3
2016-12-18T02:02:59.514Z,-1.3
2016-12-18T02:03:18.156Z,-1.3
2016-12-18T02:03:36.799Z,-1.4
2016-12-18T02:03:55.444Z,-1.3
2016-12-18T02:04:14.127Z,-1.3
2016-12-18T02:04:32.775Z,-1.3
2016-12-18T02:04:51.414Z,-1.3
2016-12-18T02:05:10.050Z,-1.4
2016-12-18T02:05:28.689Z,-1.4
2016-12-18T02:05:47.332Z,-1.4
2016-12-18T02:06:05.970Z,-1.4
2016-12-18T02:06:24.611Z,-1.4
2016-12-18T02:06:43.254Z,-1.4
2016-12-18T02:07:01.891Z,-1.4
2016-12-18T02:07:20.536Z,-1.4
2016-12-18T02:07:39.204Z,-1.4
2016-12-18T02:07:57.861Z,-1.4
2016-12-18T02:08:16.499Z,-1.4
2016-12-18T02:08:35.145Z,-1.4
2016-12-18T02:08:53.787Z,-1.4
2016-12-18T02:09:12.460Z,-1.5
2016-12-18T02:09:31.096Z,-1.5
2016-12-18T02:09:49.738Z,-1.5
2016-12-18T02:10:08.380Z,-1.5
2016-12-18T02:10:27.028Z,-1.5
2016-12-18T02:10:45.687Z,-1.5
2016-12-18T02:11:04.330Z,-1.6
2016-12-18T02:11:22.987Z,-1.6
2016-12-18T02:11:41.635Z,-1.6
2016-12-18T02:12:00.286Z,-1.6
2016-12-18T02:12:18.946Z,-1.6
2016-12-18T02:12:37.595Z,-1.6
2016-12-18T02:12:56.237Z,-1.6
2016-12-18T02:13:14.886Z,-1.6
2016-12-18T02:13:33.524Z,-1.6
2016-12-18T02:13:52.160Z,-1.6
2016-12-18T02:14:10.811Z,-1.6
2016-12-18T02:14:29.456Z,-1.6
2016-12-18T02:14:48.100Z,-1.6
2016-12-18T02:15:06.737Z,-1.6
2016-12-18T02:15:25.375Z,-1.6
2016-12-18T02:15:44.051Z,-1.6
2016-12-18T02:16:02.698Z,-1.6
2016-12-18T02:16:21.341Z,-1.6
2016-12-18T02:16:39.976Z,-1.6
2016-12-18T02:16:58.618Z,-1.6
2016-12-18T02:17:17.261Z,-1.6
2016-12-18T02:17:35.907Z,-1.6
2016-12-18T02:17:54.546Z,-1.6
2016-12-18T02:18:13.191Z,-1.6
2016-12-18T02:18:31.854Z,-1.6
2016-12-18T02:18:50.493Z,-1.6
2016-12-18T02:19:09.177Z,-1.6
2016-12-18T02:19:27.818Z,-1.6
2016-12-18T02:19:46.464Z,-1.6
2016-12-18T02:20:05.105Z,-1.6
2016-12-18T02:20:23.744Z,-1.6
2016-12-18T02:20:42.419Z,-1.6
2016-12-18T02:21:01.058Z,-1.6
2016-12-18T02:21:19.700Z,-1.6
2016-12-18T02:21:38.348Z,-1.6
2016-12-18T02:21:56.989Z,-1.6
2016-12-18T02:22:15.632Z,-1.6
2016-12-18T02:22:34.273Z,-1.6
2016-12-18T02:22:52.913Z,-1.6
2016-12-18T02:23:11.553Z,-1.6
2016-12-18T02:23:30.196Z,-1.6
2016-12-18T02:23:48.855Z,-1.6
2016-12-18T02:24:07.513Z,-1.6
2016-12-18T02:24:26.153Z,-1.6
2016-12-18T02:24:44.795Z,-1.6
2016-12-18T02:25:03.434Z,-1.6
2016-12-18T02:25:22.068Z,-1.6
2016-12-18T02:25:40.717Z,-1.6
2016-12-18T02:25:59.360Z,-1.6
2016-12-18T02:26:18.033Z,-1.6
2016-12-18T02:26:36.687Z,-1.6
2016-12-18T02:26:55.332Z,-1.6
2016-12-18T02:27:14.007Z,-1.6
2016-12-18T02:27:32.650Z,-1.6
2016-12-18T02:27:51.291Z,-1.6
2016-12-18T02:28:09.928Z,-1.6
2016-12-18T02:28:28.575Z,-1.6
2016-12-18T02:28:47.247Z,-1.6
2016-12-18T02:29:05.910Z,-1.6
2016-12-18T02:29:24.549Z,-1.7
2016-12-18T02:29:43.197Z,-1.6
2016-12-18T02:30:01.837Z,-1.7
2016-12-18T02:30:20.484Z,-1.6
2016-12-18T02:30:39.145Z,-1.6
2016-12-18T02:30:57.782Z,-1.6
2016-12-18T02:31:16.422Z,-1.6
2016-12-18T02:31:35.061Z,-1.6
2016-12-18T02:31:53.704Z,-1.6
2016-12-18T02:32:12.373Z,-1.6
2016-12-18T02:32:31.021Z,-1.6
2016-12-18T02:32:49.662Z,-1.6
2016-12-18T02:33:08.306Z,-1.6
2016-12-18T02:33:26.947Z,-1.6
2016-12-18T02:33:45.586Z,-1.6
2016-12-18T02:34:04.231Z,-1.6
2016-12-18T02:34:22.874Z,-1.6
2016-12-18T02:34:41.513Z,-1.6
2016-12-18T02:35:00.155Z,-1.6
2016-12-18T02:35:18.806Z,-1.6
2016-12-18T02:35:37.464Z,-1.6
2016-12-18T02:35:56.102Z,-1.6
2016-12-18T02:36:14.746Z,-1.6
2016-12-18T02:36:33.383Z,-1.6
2016-12-18T02:36:52.018Z,-1.6
2016-12-18T02:37:10.664Z,-1.6
2016-12-18T02:37:29.305Z,-1.6
2016-12-18T02:37:47.947Z,-1.6
2016-12-18T02:38:06.585Z,-1.6
2016-12-18T02:38:25.219Z,-1.6
2016-12-18T02:38:43.898Z,-1.6
2016-12-18T02:39:02.539Z,-1.6
2016-12-18T02:39:21.199Z,-1.6
2016-12-18T02:39:39.872Z,-1.7
2016-12-18T02:39:58.518Z,-1.7
2016-12-18T02:40:17.163Z,-1.7
2016-12-18T02:40:35.810Z,-1.7
2016-12-18T02:40:54.446Z,-1.7
2016-12-18T02:41:13.094Z,-1.7
2016-12-18T02:41:31.738Z,-1.7
2016-12-18T02:41:50.386Z,-1.7
2016-12-18T02:42:09.057Z,-1.7
2016-12-18T02:42:27.691Z,-1.7
2016-12-18T02:42:46.330Z,-1.7
2016-12-18T02:43:04.967Z,-1.7
2016-12-18T02:43:23.607Z,-1.7
2016-12-18T02:43:42.255Z,-1.7
2016-12-18T02:44:00.895Z,-1.7
2016-12-18T02:44:19.537Z,-1.7
2016-12-18T02:44:38.188Z,-1.7
2016-12-18T02:44:56.828Z,-1.6
2016-12-18T02:45:15.474Z,-1.6
2016-12-18T02:45:34.130Z,-1.6
2016-12-18T02:45:52.770Z,-1.6
2016-12-18T02:46:11.411Z,-1.5
2016-12-18T02:46:30.048Z,-1.5
2016-12-18T02:46:48.692Z,-1.5
2016-12-18T02:47:07.383Z,-1.4
2016-12-18T02:47:26.026Z,-1.4
2016-12-18T02:47:44.670Z,-1.4
2016-12-18T02:48:03.307Z,-1.4
2016-12-18T02:48:21.956Z,-1.3
2016-12-18T02:48:40.603Z,-1.3
2016-12-18T02:48:59.248Z,-1.3
2016-12-18T02:49:17.889Z,-1.3
2016-12-18T02:49:36.529Z,-1.2
2016-12-18T02:49:55.186Z,-1.2
2016-12-18T02:50:13.890Z,-1.2
2016-12-18T02:50:32.529Z,-1.2
2016-12-18T02:50:51.175Z,-1.2
2016-12-18T02:51:09.828Z,-1.1
2016-12-18T02:51:28.490Z,-1.1
2016-12-18T02:51:47.175Z,-1.1
2016-12-18T02:52:05.817Z,-1.1
2016-12-18T02:52:24.459Z,-1
2016-12-18T02:52:43.102Z,-1
2016-12-18T02:53:01.742Z,-0.9
2016-12-18T02:53:20.378Z,-0.9
2016-12-18T02:53:39.046Z,-0.9
2016-12-18T02:53:57.690Z,-0.9
2016-12-18T02:54:16.328Z,-0.8
2016-12-18T02:54:34.970Z,-0.8
2016-12-18T02:54:53.607Z,-0.8
2016-12-18T02:55:12.304Z,-0.7
2016-12-18T02:55:30.949Z,-0.7
2016-12-18T02:55:49.589Z,-0.7
2016-12-18T02:56:08.228Z,-0.6
2016-12-18T02:56:26.868Z,-0.6
2016-12-18T02:56:45.514Z,-0.6
2016-12-18T02:57:04.167Z,-0.6
2016-12-18T02:57:22.807Z,-0.5
2016-12-18T02:57:41.443Z,-0.5
2016-12-18T02:58:00.085Z,-0.5
2016-12-18T02:58:18.751Z,-0.5
2016-12-18T02:58:37.401Z,-0.5
2016-12-18T02:58:56.037Z,-0.5
2016-12-18T02:59:14.680Z,-0.5
2016-12-18T02:59:33.323Z,-0.5
2016-12-18T02:59:51.966Z,-0.4
2016-12-18T03:00:10.604Z,-0.4
2016-12-18T03:00:29.263Z,-0.4
2016-12-18T03:00:47.911Z,-0.4
2016-12-18T03:01:06.552Z,-0.4
2016-12-18T03:01:25.202Z,-0.4
2016-12-18T03:01:43.877Z,-0.4
2016-12-18T03:02:02.518Z,-0.4
2016-12-18T03:02:21.167Z,-0.4
2016-12-18T03:02:39.809Z,-0.3
2016-12-18T03:02:58.447Z,-0.3
2016-12-18T03:03:17.083Z,-0.3
2016-12-18T03:03:35.727Z,-0.3
2016-12-18T03:03:54.374Z,-0.3
2016-12-18T03:04:13.017Z,-0.3
2016-12-18T03:04:31.665Z,-0.3
2016-12-18T03:04:50.303Z,-0.2
2016-12-18T03:05:08.972Z,-0.2
2016-12-18T03:05:27.614Z,-0.2
2016-12-18T03:05:46.270Z,-0.2
2016-12-18T03:06:04.916Z,-0.1
2016-12-18T03:06:23.552Z,-0.1
2016-12-18T03:06:42.253Z,-0.1
2016-12-18T03:07:00.900Z,-0.1
2016-12-18T03:07:19.539Z,0
2016-12-18T03:07:38.182Z,0
2016-12-18T03:07:56.830Z,0
2016-12-18T03:08:15.470Z,0
2016-12-18T03:08:34.114Z,0
2016-12-18T03:08:52.760Z,0
2016-12-18T03:09:11.398Z,0
2016-12-18T03:09:30.036Z,0
2016-12-18T03:09:48.699Z,0
2016-12-18T03:10:07.341Z,0
2016-12-18T03:10:25.964Z,0
2016-12-18T03:10:44.583Z,0
2016-12-18T03:11:03.230Z,0
2016-12-18T03:11:21.854Z,0.1
2016-12-18T03:11:40.480Z,0.1
2016-12-18T03:11:59.102Z,0.1
2016-12-18T03:12:17.743Z,0.1
2016-12-18T03:12:36.371Z,0.1
2016-12-18T03:12:55.004Z,0.1
2016-12-18T03:13:13.650Z,0.1
2016-12-18T03:13:32.284Z,0.1
2016-12-18T03:13:50.903Z,0.1
2016-12-18T03:14:09.540Z,0.1
2016-12-18T03:14:28.168Z,0.1
2016-12-18T03:14:46.790Z,0.1
2016-12-18T03:15:05.414Z,0.1
2016-12-18T03:15:24.038Z,0.1
2016-12-18T03:15:42.661Z,0.1
2016-12-18T03:16:01.291Z,0.1
2016-12-18T03:16:19.941Z,0.1
2016-12-18T03:16:38.574Z,0.1
2016-12-18T03:16:57.247Z,0.1
2016-12-18T03:17:15.894Z,0.1
2016-12-18T03:17:34.529Z,0.1
2016-12-18T03:17:53.152Z,0.1
2016-12-18T03:18:11.776Z,0.1
2016-12-18T03:18:30.399Z,0.1
2016-12-18T03:18:49.021Z,0.1
2016-12-18T03:19:07.646Z,0.1
2016-12-18T03:19:26.280Z,0.1
2016-12-18T03:19:44.905Z,0.1
2016-12-18T03:20:03.521Z,0.1
2016-12-18T03:20:22.174Z,0.1
2016-12-18T03:20:40.801Z,0.1
2016-12-18T03:20:59.430Z,0.2
2016-12-18T03:21:18.055Z,0.2
2016-12-18T03:21:36.695Z,0.2
2016-12-18T03:21:55.315Z,0.2
2016-12-18T03:22:13.944Z,0.2
2016-12-18T03:22:32.579Z,0.2
2016-12-18T03:22:51.202Z,0.2
2016-12-18T03:23:09.829Z,0.2
2016-12-18T03:23:28.459Z,0.2
2016-12-18T03:23:47.106Z,0.2
2016-12-18T03:24:05.729Z,0.2
2016-12-18T03:24:24.355Z,0.2
2016-12-18T03:24:42.984Z,0.2
2016-12-18T03:25:01.613Z,0.3
2016-12-18T03:25:20.241Z,0.3
2016-12-18T03:25:38.889Z,0.3
2016-12-18T03:25:57.520Z,0.3
2016-12-18T03:26:16.149Z,0.3
2016-12-18T03:26:34.779Z,0.3
2016-12-18T03:26:53.417Z,0.3
2016-12-18T03:27:12.041Z,0.3
2016-12-18T03:27:30.666Z,0.3
2016-12-18T03:27:49.292Z,0.3
2016-12-18T03:28:07.918Z,0.3
2016-12-18T03:28:26.570Z,0.3
2016-12-18T03:28:45.202Z,0.4
2016-12-18T03:29:03.850Z,0.3
2016-12-18T03:29:22.477Z,0.3
2016-12-18T03:29:41.100Z,0.3
2016-12-18T03:29:59.732Z,0.3
2016-12-18T03:30:18.362Z,0.3
2016-12-18T03:30:36.989Z,0.3
2016-12-18T03:30:55.606Z,0.3
2016-12-18T03:31:14.225Z,0.3
2016-12-18T03:31:32.861Z,0.4
2016-12-18T03:31:51.490Z,0.3
2016-12-18T03:32:10.120Z,0.4
2016-12-18T03:32:28.776Z,0.4
2016-12-18T03:32:47.397Z,0.4
2016-12-18T03:33:06.029Z,0.4
2016-12-18T03:33:24.658Z,0.4
2016-12-18T03:33:43.292Z,0.4
2016-12-18T03:34:01.927Z,0.4
2016-12-18T03:34:20.551Z,0.4
2016-12-18T03:34:39.180Z,0.4
2016-12-18T03:34:57.810Z,0.5
2016-12-18T03:35:16.434Z,0.5
2016-12-18T03:35:35.062Z,0.5
2016-12-18T03:35:53.712Z,0.5
2016-12-18T03:36:12.335Z,0.5
2016-12-18T03:36:30.961Z,0.5
2016-12-18T03:36:49.588Z,0.5
2016-12-18T03:37:08.219Z,0.5
2016-12-18T03:37:26.866Z,0.5
2016-12-18T03:37:45.493Z,0.5
2016-12-18T03:38:04.128Z,0.5
2016-12-18T03:38:22.752Z,0.5
2016-12-18T03:38:41.377Z,0.5
2016-12-18T03:39:00.004Z,0.5
2016-12-18T03:39:18.654Z,0.5
2016-12-18T03:39:37.280Z,0.5
2016-12-18T03:39:55.906Z,0.5
2016-12-18T03:40:14.532Z,0.5
2016-12-18T03:40:33.160Z,0.5
2016-12-18T03:40:51.782Z,0.5
2016-12-18T03:41:10.405Z,0.5
2016-12-18T03:41:29.032Z,0.5
2016-12-18T03:41:47.682Z,0.5
2016-12-18T03:42:06.306Z,0.5
2016-12-18T03:42:24.931Z,0.5
2016-12-18T03:42:43.583Z,0.5
2016-12-18T03:43:02.201Z,0.5
2016-12-18T03:43:20.830Z,0.5
2016-12-18T03:43:39.457Z,0.5
2016-12-18T03:43:58.081Z,0.5
2016-12-18T03:44:16.706Z,0.5
2016-12-18T03:44:35.326Z,0.5
2016-12-18T03:44:53.951Z,0.6
2016-12-18T03:45:12.580Z,0.6
2016-12-18T03:45:31.204Z,0.6
2016-12-18T03:45:49.832Z,0.6
2016-12-18T03:46:08.466Z,0.6
2016-12-18T03:46:27.118Z,0.6
2016-12-18T03:46:45.743Z,0.6
2016-12-18T03:47:04.367Z,0.6
2016-12-18T03:47:22.993Z,0.6
2016-12-18T03:47:41.623Z,0.6
2016-12-18T03:48:00.281Z,0.6
2016-12-18T03:48:18.900Z,0.6
2016-12-18T03:48:37.527Z,0.6
2016-12-18T03:48:56.154Z,0.6
2016-12-18T03:49:14.777Z,0.6
2016-12-18T03:49:33.407Z,0.5
2016-12-18T03:49:52.058Z,0.6
2016-12-18T03:50:10.685Z,0.6
2016-12-18T03:50:29.312Z,0.6
2016-12-18T03:50:47.943Z,0.6
2016-12-18T03:51:06.568Z,0.6
2016-12-18T03:51:25.193Z,0.6
2016-12-18T03:51:43.823Z,0.6
2016-12-18T03:52:02.448Z,0.6
2016-12-18T03:52:21.077Z,0.6
2016-12-18T03:52:39.706Z,0.6
2016-12-18T03:52:58.332Z,0.6
2016-12-18T03:53:16.997Z,0.6
2016-12-18T03:53:35.626Z,0.6
2016-12-18T03:53:54.259Z,0.6
2016-12-18T03:54:12.884Z,0.6
2016-12-18T03:54:31.510Z,0.6
2016-12-18T03:54:50.134Z,0.6
2016-12-18T03:55:08.782Z,0.6
2016-12-18T03:55:27.402Z,0.6
2016-12-18T03:55:46.028Z,0.6
2016-12-18T03:56:04.656Z,0.6
2016-12-18T03:56:23.284Z,0.6
2016-12-18T03:56:41.912Z,0.6
2016-12-18T03:57:00.533Z,0.6
2016-12-18T03:57:19.153Z,0.6
2016-12-18T03:57:37.786Z,0.6
2016-12-18T03:57:56.435Z,0.6
2016-12-18T03:58:15.058Z,0.6
2016-12-18T03:58:33.729Z,0.6
2016-12-18T03:58:52.350Z,0.6
2016-12-18T03:59:10.976Z,0.6
2016-12-18T03:59:29.600Z,0.6
2016-12-18T03:59:48.225Z,0.6
2016-12-18T04:00:06.852Z,0.6
2016-12-18T04:00:25.470Z,0.6
2016-12-18T04:00:44.089Z,0.6
2016-12-18T04:01:02.715Z,0.6
2016-12-18T04:01:21.346Z,0.6
2016-12-18T04:01:39.980Z,0.6
2016-12-18T04:01:58.631Z,0.6
2016-12-18T04:02:17.256Z,0.6
2016-12-18T04:02:35.886Z,0.6
2016-12-18T04:02:54.511Z,0.6
2016-12-18T04:03:13.134Z,0.6
2016-12-18T04:03:31.764Z,0.6
2016-12-18T04:03:50.406Z,0.6
2016-12-18T04:04:09.029Z,0.6
2016-12-18T04:04:27.660Z,0.6
2016-12-18T04:04:46.283Z,0.6
2016-12-18T04:05:04.913Z,0.6
2016-12-18T04:05:23.561Z,0.6
2016-12-18T04:05:42.183Z,0.6
2016-12-18T04:06:00.807Z,0.6
2016-12-18T04:06:19.433Z,0.6
2016-12-18T04:06:38.056Z,0.6
2016-12-18T04:06:56.690Z,0.6
2016-12-18T04:07:15.315Z,0.6
2016-12-18T04:07:33.946Z,0.6
2016-12-18T04:07:52.571Z,0.6
2016-12-18T04:08:11.200Z,0.6
2016-12-18T04:08:29.827Z,0.6
2016-12-18T04:08:48.467Z,0.6
2016-12-18T04:09:07.091Z,0.6
2016-12-18T04:09:25.719Z,0.6
2016-12-18T04:09:44.349Z,0.6
2016-12-18T04:10:02.978Z,0.6
2016-12-18T04:10:21.599Z,0.6
2016-12-18T04:10:40.221Z,0.6
2016-12-18T04:10:58.851Z,0.6
2016-12-18T04:11:17.480Z,0.6
2016-12-18T04:11:36.110Z,0.6